This is the latest recevied weather packets stored in our database for station/object KD7MPG-3. If no packets are shown the sender has not sent any weather packets the latest 10 day(s).
| Time | Temp. | Humidity | Pressure | Rain* | Wind** | Luminosity | Snow |
|---|---|---|---|---|---|---|---|
| 1787862581 | 25.56° C | 56% | 1027 hPa | 0 mm | - | - | - |
| 1787862274 | 25.56° C | 57% | 1026.9 hPa | 0 mm | - | - | - |
| 1787862038 | 16.11° C | 86% | 1027.6 hPa | 0 mm | - | - | - |
| 1787862033 | 15.56° C | 86% | 1027.6 hPa | 0 mm | - | - | - |
| 1787862028 | 15.56° C | 86% | 1027.4 hPa | 0 mm | - | - | - |
| 1787862023 | 15.56° C | 86% | 1027.4 hPa | 0 mm | - | - | - |
| 1787862019 | 15.56° C | 86% | 1027.5 hPa | 0 mm | - | - | - |
| 1787862015 | 15.56° C | 86% | 1027.4 hPa | 0 mm | - | - | - |
| 1787862010 | 15.56° C | 87% | 1027.3 hPa | 0 mm | - | - | - |
| 1787862006 | 15.56° C | 87% | 1027.3 hPa | 0 mm | - | - | - |
| 1787862000 | 15° C | 87% | 1027.3 hPa | 0 mm | - | - | - |
| 1787861996 | 15° C | 87% | 1027.3 hPa | 0 mm | - | - | - |
| 1787861992 | 15° C | 87% | 1027.3 hPa | 0 mm | - | - | - |
| 1787861987 | 15° C | 87% | 1027.2 hPa | 0 mm | - | - | - |
| 1787861983 | 15° C | 87% | 1027.3 hPa | 0 mm | - | - | - |
| 1787861978 | 15° C | 87% | 1027.3 hPa | 0 mm | - | - | - |
| 1787861973 | 25.56° C | 57% | 1027 hPa | 0 mm | - | - | - |
| 1787861968 | 15° C | 88% | 1027.3 hPa | 0 mm | - | - | - |
| 1787861964 | 14.44° C | 88% | 1027.3 hPa | 0 mm | - | - | - |
| 1787861959 | 14.44° C | 88% | 1027.3 hPa | 0 mm | - | - | - |
| 1787861955 | 14.44° C | 89% | 1027.3 hPa | 0 mm | - | - | - |
| 1787861951 | 14.44° C | 89% | 1027.2 hPa | 0 mm | - | - | - |
| 1787861945 | 14.44° C | 89% | 1027.2 hPa | 0 mm | - | - | - |
| 1787861941 | 13.89° C | 89% | 1027.1 hPa | 0 mm | - | - | - |
| 1787861936 | 13.89° C | 90% | 1027.1 hPa | 0 mm | - | - | - |
* Rain latest hour (hover to see other rain measurements)
** Current wind speed in m/s (hover to see current wind gust speed)